KAOH/AOH METAR and TAF weather

Enter ICAO airport designator
Station Type Date Time Source
KAOH METAR 2019/06/16 06:53 UTC NOAA

KAOH 160653Z AUTO 26011KT 7SM OVC003 19/18 A2981 RMK AO2 SLP091 T01890178


Station Type Date Time Source
KAOH Decoded METAR 2019/06/16 06:53 UTC NOAA

LIMA ALLEN COUNTY AIRPORT, OH, United States (KAOH) 40-42N 84-01W 296M
Jun 16, 2019 - 02:53 AM EDT / 2019.06.16 0653 UTC
Wind: from the W (260 degrees) at 13 MPH (11 KT):0
Visibility: 7 mile(s):0
Sky conditions: overcast
Temperature: 66.0 F (18.9 C)
Dew Point: 64.0 F (17.8 C)
Relative Humidity: 93%
Pressure (altimeter): 29.81 in. Hg (1009 hPa)
ob: KAOH 160653Z AUTO 26011KT 7SM OVC003 19/18 A2981 RMK AO2 SLP091 T01890178
cycle: 7

Station Type Date Time Source
KAOH TAF UTC NOAA

Error!

Example: see airport list